Time;durP1;ratioP1;P1;durP2;ratioP2;P2;SDS_P1;SDS_P2;PMS_P1;PMS_P2;Temp;Humidity;BMP_temperature;BMP_pressure;BME280_temperature;BME280_humidity;BME280_pressure;Samples;Min_cycle;Max_cycle;Signal;HPM_P1;HPM_P2
2021/06/25 00:00:03;;;;;;;3.53;3.00;;;16.40;68.60;;;;;;5072660;28;20179;-93
2021/06/25 00:02:28;;;;;;;2.95;2.70;;;16.40;68.50;;;;;;5066513;28;20024;-94
2021/06/25 00:04:54;;;;;;;2.97;2.72;;;16.30;68.60;;;;;;5073511;28;20017;-93
2021/06/25 00:07:19;;;;;;;3.83;2.88;;;16.30;68.80;;;;;;5071922;28;20132;-93
2021/06/25 00:09:45;;;;;;;3.70;2.88;;;16.20;68.70;;;;;;5072965;28;20033;-94
2021/06/25 00:12:11;;;;;;;4.10;3.03;;;16.20;68.80;;;;;;5069682;28;20036;-92
2021/06/25 00:14:37;;;;;;;4.25;2.85;;;16.20;68.90;;;;;;5071578;28;20097;-93
2021/06/25 00:17:03;;;;;;;2.85;2.58;;;16.10;68.80;;;;;;5071083;28;20502;-92
2021/06/25 00:19:29;;;;;;;3.88;3.10;;;16.10;68.80;;;;;;5072568;28;20013;-92
2021/06/25 00:21:55;;;;;;;3.53;3.20;;;16.10;68.80;;;;;;5071740;28;20032;-91
2021/06/25 00:24:20;;;;;;;3.45;2.97;;;16.00;68.90;;;;;;5073083;28;20480;-93
2021/06/25 00:26:47;;;;;;;4.18;3.20;;;15.90;69.00;;;;;;5071838;28;20017;-92
2021/06/25 00:29:13;;;;;;;4.65;3.67;;;15.90;69.10;;;;;;5071862;28;20037;-93
2021/06/25 00:31:39;;;;;;;4.65;3.60;;;15.90;69.10;;;;;;5071292;28;20050;-92
2021/06/25 00:34:04;;;;;;;3.90;3.05;;;15.90;69.00;;;;;;5072986;28;20081;-91
2021/06/25 00:36:30;;;;;;;4.03;3.47;;;15.80;68.90;;;;;;5072699;28;20543;-91
2021/06/25 00:38:55;;;;;;;3.50;3.20;;;15.80;68.90;;;;;;5072915;28;20012;-92
2021/06/25 00:41:21;;;;;;;3.70;3.40;;;15.70;68.90;;;;;;5072738;28;20024;-92
2021/06/25 00:43:47;;;;;;;3.55;3.25;;;15.70;69.00;;;;;;5072497;28;20032;-93
2021/06/25 00:46:12;;;;;;;4.05;3.65;;;15.70;69.10;;;;;;5072497;28;20699;-91
2021/06/25 00:48:38;;;;;;;4.72;3.80;;;15.60;69.00;;;;;;5072609;28;20048;-90
2021/06/25 00:51:04;;;;;;;4.18;3.70;;;15.60;68.90;;;;;;5072249;28;20025;-90
2021/06/25 00:53:33;;;;;;;3.63;3.33;;;15.60;68.90;;;;;;5072798;28;20105;-93
2021/06/25 00:56:00;;;;;;;3.40;3.10;;;15.50;68.90;;;;;;5072775;28;20032;-93
2021/06/25 00:58:25;;;;;;;5.40;3.67;;;15.50;68.90;;;;;;5072776;28;20017;-93
2021/06/25 01:00:51;;;;;;;4.00;3.33;;;15.50;69.00;;;;;;5071335;28;20561;-92
2021/06/25 01:03:17;;;;;;;4.18;3.50;;;15.40;69.00;;;;;;5071714;28;20123;-92
2021/06/25 01:05:43;;;;;;;4.40;4.00;;;15.30;69.10;;;;;;5072046;28;20033;-93
2021/06/25 01:08:10;;;;;;;4.43;3.88;;;15.30;69.20;;;;;;5072611;28;20081;-92
2021/06/25 01:10:37;;;;;;;3.72;3.28;;;15.20;69.20;;;;;;5072713;28;20178;-92
2021/06/25 01:13:04;;;;;;;4.68;3.33;;;15.10;69.30;;;;;;5104775;28;20490;-90
2021/06/25 01:15:30;;;;;;;4.68;3.85;;;15.10;69.40;;;;;;5071638;28;20031;-91
2021/06/25 01:17:56;;;;;;;4.20;3.40;;;15.10;69.40;;;;;;5072051;28;20044;-91
2021/06/25 01:20:27;;;;;;;3.85;3.45;;;15.00;69.40;;;;;;5070799;28;20052;-91
2021/06/25 01:22:55;;;;;;;3.97;3.58;;;15.00;69.50;;;;;;5070647;28;20036;-92
2021/06/25 01:25:28;;;;;;;3.63;3.33;;;15.00;69.60;;;;;;5072184;28;20025;-92
2021/06/25 01:27:59;;;;;;;4.25;3.85;;;14.90;69.80;;;;;;5067300;28;20113;-92
2021/06/25 01:30:31;;;;;;;5.15;4.10;;;14.90;69.80;;;;;;5072222;28;20479;-91
2021/06/25 01:32:58;;;;;;;5.32;4.13;;;14.80;69.70;;;;;;5071914;28;20086;-91
2021/06/25 01:35:24;;;;;;;3.97;3.53;;;14.80;69.70;;;;;;5072044;28;20025;-91
2021/06/25 01:37:49;;;;;;;4.10;3.70;;;14.70;69.80;;;;;;5072441;28;20371;-92
2021/06/25 01:40:17;;;;;;;4.68;4.13;;;14.70;69.70;;;;;;5070970;28;21137;-93
2021/06/25 01:42:45;;;;;;;4.35;3.95;;;14.70;69.70;;;;;;5071978;28;20041;-91
2021/06/25 01:45:16;;;;;;;4.50;4.00;;;14.70;70.40;;;;;;5071187;28;20028;-92
2021/06/25 01:47:44;;;;;;;5.00;4.30;;;14.60;69.80;;;;;;5072505;28;20074;-92
2021/06/25 01:50:13;;;;;;;4.30;3.90;;;14.50;69.80;;;;;;5071844;28;20028;-92
2021/06/25 01:52:52;;;;;;;4.70;3.88;;;14.50;69.80;;;;;;5071398;28;20111;-92
2021/06/25 01:55:18;;;;;;;4.40;4.00;;;14.50;70.00;;;;;;5070990;28;20390;-92
2021/06/25 01:57:44;;;;;;;3.67;3.35;;;14.40;70.00;;;;;;5072413;28;20108;-88
2021/06/25 02:00:11;;;;;;;4.63;4.22;;;14.30;70.10;;;;;;5071333;28;20399;-90
2021/06/25 02:02:40;;;;;;;4.55;3.95;;;14.30;70.10;;;;;;5069199;28;20051;-89
2021/06/25 02:05:13;;;;;;;5.20;4.28;;;14.30;70.20;;;;;;5071027;28;20107;-89
2021/06/25 02:07:39;;;;;;;4.43;3.67;;;14.20;70.10;;;;;;5070623;28;20444;-89
2021/06/25 02:10:07;;;;;;;6.10;4.85;;;14.20;70.20;;;;;;5071027;28;20109;-91
2021/06/25 02:12:35;;;;;;;4.18;3.78;;;14.10;70.20;;;;;;5074406;28;20630;-91
2021/06/25 02:15:00;;;;;;;5.10;4.57;;;14.10;70.40;;;;;;5074878;28;20055;-91
2021/06/25 02:17:26;;;;;;;4.57;4.18;;;14.10;70.50;;;;;;5074491;28;20060;-90
2021/06/25 02:19:51;;;;;;;4.68;4.28;;;14.00;70.60;;;;;;5074763;28;20028;-91
2021/06/25 02:22:17;;;;;;;4.80;4.35;;;14.00;70.70;;;;;;5074706;28;20031;-91
2021/06/25 02:24:43;;;;;;;5.53;4.60;;;14.00;70.80;;;;;;5074848;28;20048;-91
2021/06/25 02:27:09;;;;;;;5.38;4.22;;;13.90;70.90;;;;;;5074810;28;20620;-89
2021/06/25 02:29:35;;;;;;;4.72;4.22;;;13.90;70.90;;;;;;5061161;28;20025;-91
2021/06/25 02:32:02;;;;;;;6.55;4.85;;;13.90;70.80;;;;;;5079419;28;20017;-92
2021/06/25 02:34:28;;;;;;;5.20;4.55;;;13.90;70.90;;;;;;5079372;28;20173;-91
2021/06/25 02:36:53;;;;;;;5.15;4.53;;;13.90;70.80;;;;;;5074844;28;20071;-91
2021/06/25 02:39:19;;;;;;;5.13;4.63;;;13.80;70.80;;;;;;5074717;28;20028;-91
2021/06/25 02:41:46;;;;;;;5.75;4.65;;;13.80;70.70;;;;;;5087516;28;20027;-91
2021/06/25 02:44:11;;;;;;;4.63;4.00;;;13.80;70.70;;;;;;5074551;28;20029;-92
2021/06/25 02:46:37;;;;;;;5.25;4.53;;;13.80;70.70;;;;;;5074818;28;20031;-92
2021/06/25 02:49:03;;;;;;;4.57;4.10;;;13.70;70.70;;;;;;5074756;28;20021;-92
2021/06/25 02:51:29;;;;;;;5.18;4.60;;;13.70;70.70;;;;;;5054690;28;20039;-92
2021/06/25 02:53:54;;;;;;;5.85;4.80;;;13.60;70.60;;;;;;5071179;28;20013;-93
2021/06/25 02:56:20;;;;;;;5.00;4.50;;;13.60;70.70;;;;;;5074891;28;20025;-90
2021/06/25 02:58:48;;;;;;;5.25;4.75;;;13.60;70.90;;;;;;5074618;28;20046;-92
2021/06/25 03:01:14;;;;;;;6.05;4.57;;;13.50;70.80;;;;;;5074796;28;20025;-93
2021/06/25 03:03:39;;;;;;;4.93;4.03;;;13.50;70.90;;;;;;5074633;28;20036;-93
2021/06/25 03:06:05;;;;;;;5.45;4.72;;;13.50;70.80;;;;;;5073943;28;20029;-93
2021/06/25 03:08:31;;;;;;;5.38;4.47;;;13.50;70.80;;;;;;5074925;28;20417;-92
2021/06/25 03:10:57;;;;;;;5.43;4.75;;;13.40;70.80;;;;;;5073322;28;20031;-92
2021/06/25 03:13:23;;;;;;;6.90;5.00;;;13.40;70.80;;;;;;5073307;28;20017;-89
2021/06/25 03:15:49;;;;;;;5.72;4.90;;;13.40;70.70;;;;;;5075744;28;20100;-92
2021/06/25 03:18:16;;;;;;;5.38;4.75;;;13.40;70.80;;;;;;5079041;28;20025;-93
2021/06/25 03:20:42;;;;;;;6.97;5.18;;;13.30;70.70;;;;;;5073314;28;20016;-91
2021/06/25 03:23:09;;;;;;;4.93;4.40;;;13.30;71.30;;;;;;5074121;28;20020;-91
2021/06/25 03:25:35;;;;;;;5.85;4.70;;;13.30;70.60;;;;;;5074639;28;20058;-92
2021/06/25 03:28:01;;;;;;;4.70;4.20;;;13.30;70.70;;;;;;5075752;28;20048;-90
2021/06/25 03:30:26;;;;;;;5.60;4.88;;;13.20;70.70;;;;;;5075103;28;20013;-92
2021/06/25 03:32:53;;;;;;;6.05;5.38;;;13.20;70.80;;;;;;5076087;28;20243;-92
2021/06/25 03:35:19;;;;;;;5.88;5.28;;;13.20;70.80;;;;;;5085711;28;20723;-91
2021/06/25 03:37:46;;;;;;;5.13;4.50;;;13.20;70.70;;;;;;5073804;28;20016;-91
2021/06/25 03:40:14;;;;;;;5.88;4.47;;;13.20;70.70;;;;;;5073820;28;20039;-91
2021/06/25 03:42:40;;;;;;;6.15;4.75;;;13.20;70.90;;;;;;5080167;28;20040;-91
2021/06/25 03:45:08;;;;;;;6.38;5.18;;;13.10;71.10;;;;;;5053730;28;20056;-90
2021/06/25 03:47:34;;;;;;;6.80;4.78;;;13.20;71.10;;;;;;5072584;28;20028;-91
2021/06/25 03:50:00;;;;;;;6.72;5.45;;;13.20;71.00;;;;;;5073293;28;20202;-89
2021/06/25 03:52:26;;;;;;;6.28;5.63;;;13.20;70.80;;;;;;5071902;28;20025;-90
2021/06/25 03:54:51;;;;;;;6.45;5.38;;;13.30;70.70;;;;;;5073545;28;20030;-90
2021/06/25 03:57:18;;;;;;;6.88;5.93;;;13.30;70.80;;;;;;5073655;28;20045;-90
2021/06/25 03:59:44;;;;;;;8.32;6.90;;;13.30;71.20;;;;;;5072178;28;20028;-90
2021/06/25 04:02:10;;;;;;;8.52;7.15;;;13.40;71.40;;;;;;5071991;28;20098;-92
2021/06/25 04:04:39;;;;;;;7.05;6.05;;;13.40;71.30;;;;;;5072658;28;20071;-92
2021/06/25 04:07:06;;;;;;;7.57;6.38;;;13.50;71.20;;;;;;5072530;28;20059;-91
2021/06/25 04:09:32;;;;;;;6.88;5.35;;;13.60;70.80;;;;;;5073895;28;20065;-91
2021/06/25 04:11:58;;;;;;;6.70;5.28;;;13.80;70.60;;;;;;5072153;28;20028;-91
2021/06/25 04:14:24;;;;;;;9.18;6.75;;;13.90;70.30;;;;;;5073321;28;20020;-92
2021/06/25 04:16:50;;;;;;;8.25;6.13;;;13.90;70.20;;;;;;5074016;28;20028;-91
2021/06/25 04:19:16;;;;;;;6.93;5.75;;;14.00;70.40;;;;;;5074474;28;20391;-92
2021/06/25 04:21:42;;;;;;;8.63;7.72;;;14.10;70.30;;;;;;5073209;28;20037;-93
2021/06/25 04:24:07;;;;;;;9.05;7.60;;;14.10;70.30;;;;;;5073965;28;20032;-91
2021/06/25 04:26:35;;;;;;;7.55;6.45;;;14.10;70.60;;;;;;5073123;28;20021;-92
2021/06/25 04:29:03;;;;;;;8.18;7.15;;;14.20;70.60;;;;;;5072628;28;20032;-91
2021/06/25 04:31:28;;;;;;;6.20;5.38;;;14.30;71.30;;;;;;5072907;28;20379;-93
2021/06/25 04:33:54;;;;;;;10.05;8.57;;;14.40;70.60;;;;;;5072952;28;20028;-94
2021/06/25 04:36:19;;;;;;;10.20;8.18;;;14.40;70.70;;;;;;5073391;28;20103;-94
2021/06/25 04:38:45;;;;;;;8.55;6.82;;;14.50;71.00;;;;;;5073089;28;20123;-95
2021/06/25 04:41:11;;;;;;;7.43;6.65;;;14.60;70.80;;;;;;5071624;28;20174;-95
2021/06/25 04:43:41;;;;;;;10.35;8.40;;;14.60;70.70;;;;;;5072829;28;20665;-94
2021/06/25 04:46:06;;;;;;;10.93;9.40;;;14.70;70.70;;;;;;5073356;28;20021;-94
2021/06/25 04:48:34;;;;;;;11.23;8.95;;;14.80;70.60;;;;;;5071960;28;20074;-93
2021/06/25 04:51:00;;;;;;;9.77;8.50;;;14.80;70.60;;;;;;5073214;28;20036;-94
2021/06/25 04:53:26;;;;;;;7.95;6.95;;;14.90;70.50;;;;;;5072394;28;20039;-92
2021/06/25 04:55:51;;;;;;;9.80;8.70;;;15.40;70.00;;;;;;5071191;28;20065;-94
2021/06/25 04:58:18;;;;;;;8.27;6.88;;;16.00;68.70;;;;;;5071602;28;20023;-93
2021/06/25 05:00:44;;;;;;;11.48;7.97;;;16.30;67.70;;;;;;5072568;28;20051;-95
2021/06/25 05:03:10;;;;;;;9.65;7.63;;;16.30;67.60;;;;;;5072058;28;20487;-94
2021/06/25 05:05:38;;;;;;;9.48;7.20;;;16.30;67.70;;;;;;5076347;28;20466;-94
2021/06/25 05:08:05;;;;;;;8.00;6.97;;;16.50;67.30;;;;;;5082950;28;20031;-95
2021/06/25 05:10:34;;;;;;;9.52;8.27;;;16.60;67.30;;;;;;5087499;28;20012;-94
2021/06/25 05:13:00;;;;;;;9.93;8.18;;;16.60;67.10;;;;;;5072113;28;20097;-94
2021/06/25 05:15:26;;;;;;;11.75;10.50;;;16.60;67.00;;;;;;5072519;28;20690;-96
2021/06/25 05:17:52;;;;;;;7.90;6.70;;;16.60;67.20;;;;;;5081019;28;20056;-90
2021/06/25 05:20:18;;;;;;;11.25;9.23;;;16.70;67.20;;;;;;5073850;28;20162;-93
2021/06/25 05:22:44;;;;;;;13.95;11.30;;;16.90;66.80;;;;;;5078487;28;20043;-91
2021/06/25 05:25:11;;;;;;;7.88;6.53;;;16.70;66.70;;;;;;5072351;28;20467;-92
2021/06/25 05:27:37;;;;;;;9.80;8.68;;;16.50;67.30;;;;;;5071987;28;20462;-91
2021/06/25 05:30:04;;;;;;;13.15;10.50;;;16.30;67.70;;;;;;5071610;28;20035;-91
2021/06/25 05:32:30;;;;;;;9.88;8.10;;;16.20;67.80;;;;;;5072410;28;20071;-91
2021/06/25 05:34:56;;;;;;;9.77;8.00;;;16.10;68.10;;;;;;5104522;28;20021;-91
2021/06/25 05:37:23;;;;;;;12.07;9.85;;;16.10;68.20;;;;;;5072452;28;20108;-91
2021/06/25 05:39:49;;;;;;;12.70;10.30;;;16.10;68.00;;;;;;5072724;28;20486;-93
2021/06/25 05:42:15;;;;;;;11.45;9.23;;;16.10;67.70;;;;;;5071039;28;20042;-91
2021/06/25 05:44:41;;;;;;;12.85;10.05;;;16.10;67.60;;;;;;5070353;28;20032;-92
2021/06/25 05:47:06;;;;;;;9.00;6.93;;;16.10;67.20;;;;;;5073630;28;20048;-93
2021/06/25 05:49:34;;;;;;;8.82;6.93;;;16.30;67.00;;;;;;5074014;28;20042;-88
2021/06/25 05:51:59;;;;;;;9.20;6.93;;;16.40;66.90;;;;;;5086692;28;20013;-88
2021/06/25 05:54:25;;;;;;;10.52;8.65;;;16.60;66.30;;;;;;5071885;28;20029;-86
2021/06/25 05:56:51;;;;;;;9.77;7.72;;;16.80;65.70;;;;;;5068508;28;20025;-88
2021/06/25 05:59:16;;;;;;;9.68;8.07;;;16.80;65.10;;;;;;5069502;28;20029;-84
2021/06/25 06:01:42;;;;;;;11.32;9.38;;;16.70;64.90;;;;;;5073694;28;20020;-88
2021/06/25 06:04:08;;;;;;;10.23;8.07;;;16.70;64.50;;;;;;5073355;28;20386;-89
2021/06/25 06:06:33;;;;;;;9.07;7.75;;;16.60;64.40;;;;;;5074175;28;20530;-87
2021/06/25 06:08:59;;;;;;;10.05;8.15;;;16.60;64.20;;;;;;5070877;28;20043;-87
2021/06/25 06:11:24;;;;;;;12.02;9.40;;;16.60;64.10;;;;;;5067615;28;20017;-86
2021/06/25 06:13:50;;;;;;;9.27;8.20;;;16.60;63.70;;;;;;5068633;28;20040;-87
2021/06/25 06:16:16;;;;;;;9.55;7.97;;;16.60;63.70;;;;;;5069627;28;20025;-92
2021/06/25 06:18:47;;;;;;;8.05;6.45;;;16.70;63.50;;;;;;5073871;28;20025;-90
2021/06/25 06:21:16;;;;;;;10.32;8.80;;;16.70;63.00;;;;;;5073179;28;20032;-90
2021/06/25 06:32:01;;;;;;;10.35;7.60;;;17.10;61.60;;;;;;5075881;28;20498;-95
2021/06/25 06:34:32;;;;;;;8.45;6.80;;;17.20;61.10;;;;;;5075156;28;20027;-94
2021/06/25 06:36:58;;;;;;;8.43;6.80;;;17.20;60.90;;;;;;5074588;28;20045;-93
2021/06/25 06:39:24;;;;;;;6.65;5.95;;;17.30;60.70;;;;;;5074504;28;20032;-92
2021/06/25 06:41:50;;;;;;;7.03;5.95;;;17.30;60.80;;;;;;5074745;28;20031;-91
2021/06/25 06:44:15;;;;;;;9.90;7.65;;;17.50;60.70;;;;;;5075095;28;20071;-91
2021/06/25 06:46:41;;;;;;;9.20;7.63;;;17.60;60.50;;;;;;5074427;28;20474;-92
2021/06/25 06:49:07;;;;;;;12.52;9.80;;;17.70;60.00;;;;;;5059628;28;20020;-93
2021/06/25 06:51:32;;;;;;;8.85;7.55;;;17.80;59.70;;;;;;5069425;28;20021;-91
2021/06/25 06:54:00;;;;;;;8.75;7.13;;;17.80;59.80;;;;;;5073871;28;20028;-91
2021/06/25 06:56:27;;;;;;;8.23;7.22;;;17.90;59.70;;;;;;5066885;28;20024;-91
2021/06/25 06:58:53;;;;;;;8.70;7.38;;;17.90;60.10;;;;;;5070221;28;20017;-91
2021/06/25 07:01:20;;;;;;;9.15;6.78;;;17.90;59.50;;;;;;5065593;28;20035;-92
2021/06/25 07:03:46;;;;;;;11.85;9.88;;;17.90;59.40;;;;;;5071017;28;20039;-93
2021/06/25 07:06:13;;;;;;;13.65;10.10;;;17.90;58.80;;;;;;5063294;28;20025;-93
2021/06/25 07:08:39;;;;;;;10.60;8.63;;;17.80;58.50;;;;;;5067483;28;20031;-92
2021/06/25 07:11:04;;;;;;;9.38;7.88;;;17.80;58.70;;;;;;5073402;28;20016;-92
2021/06/25 07:13:30;;;;;;;9.82;8.13;;;18.00;58.80;;;;;;5074045;28;20028;-92
2021/06/25 07:15:55;;;;;;;8.70;6.85;;;18.10;58.40;;;;;;5074377;28;20024;-92
2021/06/25 07:18:22;;;;;;;12.13;9.40;;;18.40;58.50;;;;;;5070421;28;20028;-92
2021/06/25 07:20:48;;;;;;;10.75;7.03;;;18.70;57.80;;;;;;5071189;28;20051;-93
2021/06/25 07:23:14;;;;;;;14.40;11.63;;;18.90;57.60;;;;;;5073899;28;20071;-93
2021/06/25 07:25:40;;;;;;;11.52;9.73;;;18.90;56.70;;;;;;5078674;28;20029;-94
2021/06/25 07:28:06;;;;;;;12.23;8.80;;;18.90;56.70;;;;;;5074597;28;20076;-90
2021/06/25 07:30:32;;;;;;;11.75;9.32;;;19.00;57.50;;;;;;5064211;28;20029;-93
2021/06/25 07:32:58;;;;;;;8.52;6.25;;;19.10;56.80;;;;;;5052679;28;20144;-93
2021/06/25 07:35:24;;;;;;;10.05;8.13;;;19.20;56.80;;;;;;5055969;28;20023;-92
2021/06/25 07:37:52;;;;;;;10.68;8.98;;;19.30;56.70;;;;;;5070240;28;20091;-93
2021/06/25 07:40:19;;;;;;;12.25;9.43;;;19.40;56.60;;;;;;5063282;28;20017;-91
2021/06/25 07:42:45;;;;;;;9.57;7.25;;;19.50;56.50;;;;;;5068847;28;20013;-92
2021/06/25 07:45:12;;;;;;;8.57;6.78;;;19.60;56.40;;;;;;5069384;28;20036;-92
2021/06/25 07:47:40;;;;;;;15.18;11.98;;;19.80;56.50;;;;;;5070093;28;20040;-92
2021/06/25 07:50:08;;;;;;;14.55;11.60;;;19.80;56.00;;;;;;5069357;28;20080;-92
2021/06/25 07:52:34;;;;;;;15.25;11.57;;;19.70;56.20;;;;;;5093423;28;20040;-93
2021/06/25 07:55:00;;;;;;;13.77;10.52;;;19.70;56.50;;;;;;5060844;28;20514;-91
2021/06/25 07:57:25;;;;;;;10.25;8.05;;;19.60;56.70;;;;;;5071566;28;20071;-93
2021/06/25 07:59:51;;;;;;;12.85;9.48;;;19.60;57.10;;;;;;5070956;28;20028;-91
2021/06/25 08:02:16;;;;;;;14.35;11.07;;;19.60;57.30;;;;;;5066609;28;20107;-89
2021/06/25 08:04:45;;;;;;;11.43;8.35;;;19.50;57.60;;;;;;5074636;28;20032;-90
2021/06/25 08:07:12;;;;;;;12.48;8.82;;;19.40;58.00;;;;;;5072239;28;20017;-90
2021/06/25 08:09:37;;;;;;;17.33;13.85;;;19.40;58.50;;;;;;5072212;28;20077;-91
2021/06/25 08:12:04;;;;;;;9.90;7.70;;;19.30;58.50;;;;;;5072141;28;20119;-92
2021/06/25 08:14:32;;;;;;;8.32;6.95;;;19.20;58.90;;;;;;5070653;28;20491;-89
2021/06/25 08:16:58;;;;;;;12.20;9.00;;;19.30;59.10;;;;;;5073026;28;20464;-90
2021/06/25 08:19:23;;;;;;;9.55;7.47;;;19.20;59.20;;;;;;5071132;28;20035;-89
2021/06/25 08:21:49;;;;;;;12.30;9.80;;;19.20;59.50;;;;;;5071788;28;20479;-91
2021/06/25 08:24:14;;;;;;;15.43;10.68;;;19.20;59.60;;;;;;5073434;28;20364;-92
2021/06/25 08:26:41;;;;;;;12.70;9.90;;;19.20;60.00;;;;;;5071889;28;20016;-92
2021/06/25 08:29:06;;;;;;;9.02;7.00;;;19.10;60.30;;;;;;5073177;28;20256;-93
2021/06/25 08:31:35;;;;;;;8.85;7.38;;;19.10;60.60;;;;;;5070950;28;20058;-92
2021/06/25 08:34:01;;;;;;;13.63;10.23;;;19.10;60.70;;;;;;5055264;28;20036;-91
2021/06/25 08:36:28;;;;;;;11.75;9.65;;;18.90;61.10;;;;;;5069754;28;20020;-91
2021/06/25 08:38:54;;;;;;;18.73;15.68;;;19.00;61.50;;;;;;5051848;28;20029;-92
2021/06/25 08:41:22;;;;;;;14.95;11.75;;;18.90;61.80;;;;;;5062482;28;20372;-91
2021/06/25 08:43:48;;;;;;;18.10;14.48;;;18.80;62.10;;;;;;5064817;28;20036;-91
2021/06/25 08:46:14;;;;;;;17.33;14.73;;;18.70;62.30;;;;;;5068909;28;20115;-92
2021/06/25 08:48:47;;;;;;;15.70;12.55;;;18.60;62.70;;;;;;5076460;28;20130;-94
2021/06/25 08:51:12;;;;;;;16.30;13.07;;;18.60;63.10;;;;;;5073887;28;20043;-93
2021/06/25 08:53:38;;;;;;;20.88;16.65;;;18.70;63.10;;;;;;5075578;28;20020;-96
2021/06/25 08:56:04;;;;;;;18.50;13.45;;;18.70;63.20;;;;;;5071006;28;20078;-91
2021/06/25 08:58:30;;;;;;;22.08;17.00;;;18.70;63.30;;;;;;5062958;28;20032;-93
2021/06/25 09:00:58;;;;;;;24.10;17.20;;;18.60;63.30;;;;;;5068435;28;20355;-90
2021/06/25 09:03:29;;;;;;;18.65;14.82;;;18.50;63.60;;;;;;5074186;28;20041;-92
2021/06/25 09:06:13;;;;;;;18.00;14.07;;;18.40;63.90;;;;;;5079631;28;20024;-92
2021/06/25 09:08:42;;;;;;;20.67;16.80;;;18.40;64.30;;;;;;5082335;28;20024;-90
2021/06/25 09:11:32;;;;;;;15.68;12.13;;;18.50;64.40;;;;;;5073162;28;20025;-91
2021/06/25 09:14:03;;;;;;;14.57;12.13;;;18.40;64.50;;;;;;5072879;28;20032;-93
2021/06/25 09:16:35;;;;;;;14.15;11.27;;;18.40;64.70;;;;;;5085363;28;20024;-89
2021/06/25 09:19:07;;;;;;;16.00;11.80;;;18.50;64.80;;;;;;5074212;28;20114;-91
2021/06/25 09:24:44;;;;;;;17.85;13.55;;;18.70;64.90;;;;;;5056396;28;20768;-90
2021/06/25 09:27:10;;;;;;;19.85;14.00;;;18.70;64.90;;;;;;5081401;28;20483;-93
2021/06/25 09:29:40;;;;;;;20.95;16.10;;;18.70;65.00;;;;;;5092129;28;20023;-91
2021/06/25 09:32:10;;;;;;;12.88;10.85;;;18.70;65.00;;;;;;5075202;28;20028;-92
2021/06/25 09:34:51;;;;;;;13.10;10.90;;;18.80;65.00;;;;;;5075164;28;20510;-90
2021/06/25 09:37:18;;;;;;;16.88;12.57;;;18.90;64.90;;;;;;5084885;28;20028;-91
2021/06/25 09:40:01;;;;;;;12.63;10.60;;;19.00;64.60;;;;;;5095188;28;20047;-91
2021/06/25 09:42:27;;;;;;;25.60;20.02;;;19.10;64.60;;;;;;5069816;28;20029;-92
2021/06/25 09:45:00;;;;;;;22.45;17.85;;;19.20;64.40;;;;;;5074016;28;20542;-91
2021/06/25 09:47:43;;;;;;;14.75;11.98;;;19.10;63.90;;;;;;5075204;28;20685;-91
2021/06/25 09:50:13;;;;;;;12.52;9.82;;;19.20;63.90;;;;;;5084705;28;20040;-91
2021/06/25 09:52:50;;;;;;;11.82;9.23;;;19.40;63.70;;;;;;5068932;28;20025;-93
2021/06/25 09:55:17;;;;;;;11.32;8.20;;;19.50;63.50;;;;;;5073133;28;20032;-93
2021/06/25 09:58:08;;;;;;;13.75;11.50;;;19.70;63.30;;;;;;5076041;28;20066;-91
2021/06/25 10:03:58;;;;;;;13.25;10.20;;;19.90;62.20;;;;;;5029181;28;20057;-90
2021/06/25 10:06:33;;;;;;;13.50;11.32;;;19.90;62.00;;;;;;5012440;28;20022;-92
2021/06/25 10:09:00;;;;;;;13.50;10.35;;;19.90;62.00;;;;;;5031270;28;20113;-91
2021/06/25 10:11:28;;;;;;;20.75;14.82;;;20.00;61.90;;;;;;5073727;28;20036;-92
2021/06/25 10:13:56;;;;;;;22.27;17.02;;;20.10;61.30;;;;;;5074815;28;20101;-93
2021/06/25 10:16:23;;;;;;;18.65;14.02;;;19.90;60.70;;;;;;5075065;28;20617;-92
2021/06/25 10:18:51;;;;;;;18.60;14.55;;;19.80;60.90;;;;;;5090021;28;20057;-92
2021/06/25 10:21:20;;;;;;;19.13;16.15;;;19.80;60.80;;;;;;5087137;28;20013;-91
2021/06/25 10:23:49;;;;;;;14.77;11.25;;;19.80;60.30;;;;;;5074520;28;20031;-90
2021/06/25 10:26:16;;;;;;;17.02;12.55;;;19.80;60.40;;;;;;5070508;28;20025;-92
2021/06/25 10:28:44;;;;;;;12.82;10.05;;;19.90;60.10;;;;;;5073735;28;20099;-92
2021/06/25 10:31:12;;;;;;;15.60;12.45;;;19.90;60.10;;;;;;5064758;28;20110;-89
2021/06/25 10:33:42;;;;;;;14.18;10.55;;;19.90;60.00;;;;;;5075975;28;20012;-92
2021/06/25 10:36:13;;;;;;;12.65;10.75;;;19.90;60.00;;;;;;5100755;28;20016;-94
2021/06/25 10:38:41;;;;;;;12.23;9.15;;;19.90;60.20;;;;;;5075498;28;20016;-94
2021/06/25 10:41:10;;;;;;;17.45;13.38;;;19.80;60.40;;;;;;5074602;28;20028;-94
2021/06/25 10:43:52;;;;;;;14.57;12.13;;;19.80;60.60;;;;;;5075373;28;20033;-93
2021/06/25 10:46:30;;;;;;;;;;;19.50;61.10;;;;;;5075431;28;20036;-91
2021/06/25 10:48:58;;;;;;;15.50;11.20;;;19.60;61.40;;;;;;5074590;28;19930;-87
2021/06/25 10:51:35;;;;;;;14.70;10.63;;;19.50;61.70;;;;;;5076940;28;20047;-92
2021/06/25 10:54:12;;;;;;;13.05;9.40;;;19.50;62.10;;;;;;5075635;28;20023;-88
2021/06/25 10:56:48;;;;;;;9.82;8.40;;;19.50;62.10;;;;;;5073315;28;20039;-91
2021/06/25 10:59:27;;;;;;;13.50;10.13;;;19.70;62.10;;;;;;5076095;28;20111;-90
2021/06/25 11:01:58;;;;;;;15.02;11.30;;;19.80;62.00;;;;;;5070052;28;20039;-88
2021/06/25 11:04:43;;;;;;;17.10;12.98;;;20.00;61.80;;;;;;5073826;28;20095;-89
2021/06/25 11:07:11;;;;;;;12.50;10.18;;;20.10;61.70;;;;;;5074159;28;20024;-92
2021/06/25 11:09:51;;;;;;;12.68;10.25;;;20.20;61.40;;;;;;5072853;28;20028;-90
2021/06/25 11:12:25;;;;;;;12.77;11.20;;;20.40;61.20;;;;;;5077535;28;20065;-93
2021/06/25 11:14:54;;;;;;;10.40;8.27;;;20.40;61.00;;;;;;5079283;28;20017;-92
2021/06/25 11:17:50;;;;;;;15.35;12.50;;;20.50;60.90;;;;;;5067237;28;20116;-93
2021/06/25 11:20:24;;;;;;;12.23;10.02;;;20.60;60.90;;;;;;5051147;28;20628;-91
2021/06/25 11:23:12;;;;;;;15.52;11.93;;;20.60;60.80;;;;;;5086337;28;20115;-93
2021/06/25 11:25:49;;;;;;;11.73;9.05;;;20.60;60.60;;;;;;5053589;28;20503;-92
2021/06/25 11:28:23;;;;;;;16.73;14.45;;;20.90;60.70;;;;;;5059150;28;20021;-91
2021/06/25 11:30:55;;;;;;;12.60;10.90;;;21.00;60.00;;;;;;5099753;28;20056;-93
2021/06/25 11:33:34;;;;;;;13.15;10.57;;;21.10;60.10;;;;;;5085862;28;20617;-91
2021/06/25 11:36:22;;;;;;;13.52;10.93;;;21.20;59.90;;;;;;5072088;28;20024;-90
2021/06/25 11:39:09;;;;;;;11.25;9.48;;;21.30;59.70;;;;;;5073027;28;20103;-89
2021/06/25 11:41:36;;;;;;;16.33;13.25;;;21.50;59.50;;;;;;5081036;28;20036;-90
2021/06/25 11:44:11;;;;;;;12.35;10.15;;;21.50;59.10;;;;;;5070379;28;20032;-89
2021/06/25 11:46:38;;;;;;;17.33;15.45;;;21.40;59.30;;;;;;5071049;28;20099;-90
2021/06/25 11:49:04;;;;;;;14.45;12.25;;;21.50;59.00;;;;;;5105843;28;20035;-92
2021/06/25 11:51:39;;;;;;;15.27;11.60;;;21.60;59.00;;;;;;5101155;28;20034;-90
2021/06/25 11:54:08;;;;;;;18.20;14.77;;;21.60;58.90;;;;;;5073750;28;20054;-92
2021/06/25 11:56:35;;;;;;;12.88;10.40;;;21.50;58.50;;;;;;5089199;28;20024;-94
2021/06/25 11:59:10;;;;;;;17.42;13.32;;;21.50;58.90;;;;;;5079873;28;20050;-91
2021/06/25 12:01:54;;;;;;;14.75;12.65;;;21.70;58.90;;;;;;5072099;28;20698;-93
2021/06/25 12:04:42;;;;;;;11.98;10.18;;;21.60;58.80;;;;;;5071870;28;20040;-93
2021/06/25 12:07:13;;;;;;;10.32;8.35;;;21.80;59.00;;;;;;5074656;28;20160;-93
2021/06/25 12:09:47;;;;;;;11.35;9.35;;;22.00;59.00;;;;;;5075532;28;20028;-91
2021/06/25 12:12:22;;;;;;;14.70;12.45;;;22.20;58.80;;;;;;5085317;28;20020;-92
2021/06/25 12:14:53;;;;;;;11.65;9.95;;;22.20;58.40;;;;;;5093422;28;20040;-90
2021/06/25 12:17:20;;;;;;;9.73;8.20;;;22.30;58.40;;;;;;5072137;28;20012;-89
2021/06/25 12:20:00;;;;;;;10.55;9.10;;;22.50;58.40;;;;;;5070544;28;20125;-92
2021/06/25 12:22:26;;;;;;;9.13;8.13;;;22.60;58.30;;;;;;5078898;28;20024;-90
2021/06/25 12:24:55;;;;;;;10.90;9.25;;;22.70;58.20;;;;;;5069207;28;20045;-91
2021/06/25 12:27:35;;;;;;;14.02;11.52;;;22.70;58.10;;;;;;5066785;28;20028;-91
2021/06/25 12:30:03;;;;;;;10.23;8.93;;;22.80;58.00;;;;;;5065468;28;20032;-90
2021/06/25 12:32:29;;;;;;;13.02;11.23;;;22.80;57.90;;;;;;5065149;28;20024;-90
2021/06/25 12:34:57;;;;;;;10.05;8.68;;;22.80;57.90;;;;;;5061223;28;20031;-91
2021/06/25 12:37:23;;;;;;;9.65;8.10;;;22.80;57.70;;;;;;5068288;28;20150;-92
2021/06/25 12:39:49;;;;;;;7.43;6.07;;;22.80;57.50;;;;;;5068120;28;20021;-92
2021/06/25 12:42:23;;;;;;;7.53;5.78;;;22.90;58.10;;;;;;5052398;28;20586;-94
2021/06/25 12:44:49;;;;;;;8.00;6.00;;;22.90;57.10;;;;;;5064633;28;20024;-93
2021/06/25 12:47:17;;;;;;;5.78;4.20;;;23.00;56.70;;;;;;5085080;28;20016;-93
2021/06/25 12:49:43;;;;;;;7.22;5.80;;;23.00;56.40;;;;;;5089087;28;20070;-95
2021/06/25 12:52:25;;;;;;;8.20;6.60;;;23.10;55.60;;;;;;5078524;28;20259;-92
2021/06/25 12:54:51;;;;;;;9.00;6.18;;;23.10;54.50;;;;;;5077007;28;20019;-92
2021/06/25 12:57:20;;;;;;;7.25;6.13;;;23.10;53.40;;;;;;5074542;28;20025;-95
2021/06/25 12:59:52;;;;;;;9.30;7.03;;;23.20;53.30;;;;;;5075927;28;20022;-95